createdAt,value
2017-06-10T00:00:55.108Z,15.15
2017-06-10T00:03:21.783Z,15.30
2017-06-10T00:05:48.461Z,15.60
2017-06-10T00:08:15.169Z,15.75
2017-06-10T00:10:41.855Z,12.63
2017-06-10T00:13:08.533Z,15.77
2017-06-10T00:15:35.213Z,14.80
2017-06-10T00:18:01.896Z,13.43
2017-06-10T00:20:28.606Z,13.48
2017-06-10T00:22:55.277Z,15.15
2017-06-10T00:25:21.954Z,13.10
2017-06-10T00:27:48.622Z,12.93
2017-06-10T00:30:15.300Z,14.05
2017-06-10T00:32:41.999Z,12.55
2017-06-10T00:35:08.676Z,14.75
2017-06-10T00:37:35.347Z,13.07
2017-06-10T00:40:02.028Z,17.55
2017-06-10T00:42:28.708Z,15.05
2017-06-10T00:44:55.388Z,13.55
2017-06-10T00:47:22.065Z,13.45
2017-06-10T00:49:48.768Z,13.15
2017-06-10T00:52:15.447Z,14.02
2017-06-10T00:54:42.137Z,13.62
2017-06-10T00:57:08.817Z,13.23
2017-06-10T00:59:35.491Z,11.15
2017-06-10T01:02:02.171Z,12.30
2017-06-10T01:04:28.856Z,18.67
2017-06-10T01:06:55.555Z,18.00
2017-06-10T01:09:22.227Z,14.32
2017-06-10T01:11:48.904Z,11.70
2017-06-10T01:14:15.576Z,11.50
2017-06-10T01:16:42.252Z,17.12
2017-06-10T01:19:08.962Z,11.32
2017-06-10T01:21:35.649Z,14.40
2017-06-10T01:24:02.326Z,13.68
2017-06-10T01:26:29.032Z,13.18
2017-06-10T01:28:55.707Z,16.73
2017-06-10T01:31:22.407Z,11.90
2017-06-10T01:33:49.084Z,19.40
2017-06-10T01:36:15.755Z,12.80
2017-06-10T01:38:42.457Z,12.68
2017-06-10T01:41:09.132Z,15.27
2017-06-10T01:43:35.841Z,14.45
2017-06-10T01:46:02.515Z,14.02
2017-06-10T01:48:29.188Z,14.95
2017-06-10T01:50:55.872Z,13.45
2017-06-10T01:53:22.548Z,11.00
2017-06-10T01:55:49.254Z,14.10
2017-06-10T01:58:15.960Z,13.13
2017-06-10T02:00:42.661Z,12.43
2017-06-10T02:03:09.345Z,14.93
2017-06-10T02:05:36.016Z,12.43
2017-06-10T02:08:02.688Z,14.00
2017-06-10T02:10:29.363Z,17.85
2017-06-10T02:12:56.063Z,11.18
2017-06-10T02:15:22.741Z,11.15
2017-06-10T02:17:49.462Z,11.88
2017-06-10T02:20:16.146Z,13.55
2017-06-10T02:22:42.816Z,11.23
2017-06-10T02:25:09.491Z,13.48
2017-06-10T02:27:36.168Z,11.75
2017-06-10T02:30:02.868Z,12.00
2017-06-10T02:32:29.541Z,12.52
2017-06-10T02:34:56.261Z,13.62
2017-06-10T02:37:22.936Z,12.05
2017-06-10T02:39:49.609Z,12.07
2017-06-10T02:42:16.285Z,12.23
2017-06-10T02:44:42.960Z,12.70
2017-06-10T02:47:09.672Z,12.43
2017-06-10T02:49:36.355Z,18.23
2017-06-10T02:52:03.065Z,13.25
2017-06-10T02:54:29.743Z,16.35
2017-06-10T02:56:56.424Z,12.98
2017-06-10T02:59:23.095Z,12.35
2017-06-10T03:01:49.778Z,15.05
2017-06-10T03:04:16.489Z,13.20
2017-06-10T03:06:43.165Z,19.23
2017-06-10T03:09:09.884Z,21.40
2017-06-10T03:11:36.569Z,13.00
2017-06-10T03:14:03.250Z,13.32
2017-06-10T03:16:29.964Z,14.38
2017-06-10T03:18:56.641Z,15.40
2017-06-10T03:21:23.348Z,13.43
2017-06-10T03:23:50.024Z,16.98
2017-06-10T03:26:16.731Z,12.85
2017-06-10T03:28:43.399Z,11.95
2017-06-10T03:31:10.076Z,15.45
2017-06-10T03:33:36.762Z,14.60
2017-06-10T03:36:03.440Z,10.85
2017-06-10T03:38:30.141Z,17.10
2017-06-10T03:40:56.827Z,12.23
2017-06-10T03:43:23.527Z,10.85
2017-06-10T03:45:50.217Z,12.73
2017-06-10T03:48:16.898Z,11.23
2017-06-10T03:50:43.577Z,13.57
2017-06-10T03:53:10.247Z,13.38
2017-06-10T03:55:36.948Z,13.27
2017-06-10T03:58:03.616Z,9.80
2017-06-10T04:00:30.319Z,14.68
2017-06-10T04:02:56.993Z,10.88
2017-06-10T04:05:23.670Z,12.07
2017-06-10T04:07:50.338Z,9.18
2017-06-10T04:10:17.015Z,12.02
2017-06-10T04:12:43.688Z,10.70
2017-06-10T04:15:10.362Z,16.62
2017-06-10T04:17:37.064Z,11.35
2017-06-10T04:20:03.736Z,11.93
2017-06-10T04:22:30.409Z,10.55
2017-06-10T04:24:57.084Z,10.45
2017-06-10T04:27:23.752Z,11.20
2017-06-10T04:29:50.462Z,12.73
2017-06-10T04:32:17.145Z,18.98
2017-06-10T04:34:43.824Z,11.77
2017-06-10T04:37:10.508Z,11.40
2017-06-10T04:39:37.184Z,11.30
2017-06-10T04:42:03.902Z,14.02
2017-06-10T04:44:30.604Z,11.82
2017-06-10T04:46:57.283Z,11.60
2017-06-10T04:49:23.963Z,14.90
2017-06-10T04:51:50.648Z,13.20
2017-06-10T04:54:17.356Z,11.15
2017-06-10T04:56:44.028Z,13.57
2017-06-10T04:59:10.727Z,10.32
2017-06-10T05:01:37.400Z,10.52
2017-06-10T05:04:04.075Z,10.10
2017-06-10T05:06:30.748Z,10.60
2017-06-10T05:08:57.416Z,16.20
2017-06-10T05:11:24.112Z,11.10
2017-06-10T05:13:50.788Z,11.52
2017-06-10T05:16:17.487Z,9.68
2017-06-10T05:18:44.168Z,10.43
2017-06-10T05:21:10.839Z,7.95
2017-06-10T05:23:37.499Z,8.75
2017-06-10T05:26:04.181Z,6.55
2017-06-10T05:28:30.875Z,9.07
2017-06-10T05:30:57.550Z,12.40
2017-06-10T05:33:24.239Z,7.27
2017-06-10T05:35:50.908Z,12.07
2017-06-10T05:38:17.594Z,7.97
2017-06-10T05:40:44.269Z,11.50
2017-06-10T05:43:10.940Z,8.50
2017-06-10T05:45:37.640Z,5.90
2017-06-10T05:48:04.312Z,8.10
2017-06-10T05:50:31.031Z,9.73
2017-06-10T05:52:57.703Z,11.93
2017-06-10T05:55:24.377Z,6.47
2017-06-10T05:57:51.056Z,13.83
2017-06-10T06:00:19.494Z,7.47
2017-06-10T06:02:46.229Z,8.37
2017-06-10T06:05:12.896Z,8.93
2017-06-10T06:07:39.596Z,6.77
2017-06-10T06:10:06.265Z,8.63
2017-06-10T06:12:32.944Z,7.53
2017-06-10T06:14:59.612Z,6.90
2017-06-10T06:17:26.305Z,9.93
2017-06-10T06:19:53.016Z,7.50
2017-06-10T06:22:19.716Z,7.87
2017-06-10T06:24:46.387Z,7.40
2017-06-10T06:27:13.064Z,7.13
2017-06-10T06:29:39.727Z,8.00
2017-06-10T06:32:06.402Z,9.83
2017-06-10T06:34:33.080Z,7.53
2017-06-10T06:36:59.761Z,10.83
2017-06-10T06:39:26.440Z,8.77
2017-06-10T06:41:53.115Z,7.60
2017-06-10T06:44:19.808Z,7.70
2017-06-10T06:46:46.545Z,6.23
2017-06-10T06:49:13.228Z,9.40
2017-06-10T06:51:39.896Z,8.20
2017-06-10T06:54:06.590Z,9.87
2017-06-10T06:56:33.273Z,12.27
2017-06-10T06:58:59.972Z,6.70
2017-06-10T07:01:26.660Z,7.00
2017-06-10T07:03:53.369Z,10.47
2017-06-10T07:06:20.045Z,7.87
2017-06-10T07:08:46.714Z,7.63
2017-06-10T07:11:13.419Z,9.13
2017-06-10T07:13:40.099Z,9.07
2017-06-10T07:16:06.827Z,7.57
2017-06-10T07:18:33.506Z,10.73
2017-06-10T07:21:00.176Z,7.20
2017-06-10T07:23:26.875Z,10.50
2017-06-10T07:25:53.544Z,7.50
2017-06-10T07:28:20.220Z,9.10
2017-06-10T07:30:54.846Z,9.20
2017-06-10T07:33:21.588Z,7.60
2017-06-10T07:35:48.268Z,8.47
2017-06-10T07:38:14.943Z,7.90
2017-06-10T07:40:41.616Z,9.53
2017-06-10T07:43:08.286Z,9.70
2017-06-10T07:45:34.984Z,9.20
2017-06-10T07:48:01.661Z,8.87
2017-06-10T07:50:28.360Z,8.77
2017-06-10T07:52:55.033Z,8.60
2017-06-10T07:55:21.718Z,7.43
2017-06-10T07:57:48.392Z,10.10
2017-06-10T08:00:15.065Z,10.63
2017-06-10T08:02:41.744Z,10.50
2017-06-10T08:05:08.420Z,6.57
2017-06-10T08:07:35.135Z,10.90
2017-06-10T08:10:01.812Z,8.03
2017-06-10T08:12:28.489Z,11.67
2017-06-10T08:14:55.152Z,6.90
2017-06-10T08:17:21.820Z,8.10
2017-06-10T08:19:48.492Z,7.97
2017-06-10T08:22:15.169Z,10.60
2017-06-10T08:24:41.877Z,6.40
2017-06-10T08:27:09.201Z,7.20
2017-06-10T08:29:35.872Z,6.40
2017-06-10T08:32:02.536Z,9.60
2017-06-10T08:34:29.209Z,8.40
2017-06-10T08:36:55.885Z,9.93
2017-06-10T08:39:22.565Z,9.13
2017-06-10T08:41:49.281Z,7.97
2017-06-10T08:44:15.965Z,10.73
2017-06-10T08:46:42.640Z,10.37
2017-06-10T08:49:09.311Z,13.10
2017-06-10T08:51:35.998Z,8.20
2017-06-10T08:54:02.702Z,10.53
2017-06-10T08:56:29.372Z,8.07
2017-06-10T08:58:56.080Z,10.70
2017-06-10T09:01:22.748Z,7.67
2017-06-10T09:03:49.429Z,5.97
2017-06-10T09:06:16.096Z,8.10
2017-06-10T09:08:42.776Z,7.00
2017-06-10T09:11:09.452Z,9.20
2017-06-10T09:13:36.124Z,10.53
2017-06-10T09:16:02.822Z,9.63
2017-06-10T09:18:29.493Z,8.20
2017-06-10T09:20:56.168Z,7.97
2017-06-10T09:23:22.834Z,8.83
2017-06-10T09:25:49.508Z,7.83
2017-06-10T09:28:17.334Z,7.70
2017-06-10T09:30:44.048Z,8.17
2017-06-10T09:33:10.747Z,7.97
2017-06-10T09:35:37.413Z,8.00
2017-06-10T09:38:04.086Z,9.67
2017-06-10T09:40:30.760Z,5.77
2017-06-10T09:42:57.424Z,8.63
2017-06-10T09:45:24.099Z,7.20
2017-06-10T09:47:50.772Z,8.97
2017-06-10T09:50:17.491Z,8.00
2017-06-10T09:52:44.177Z,6.37
2017-06-10T09:55:10.855Z,8.03
2017-06-10T09:57:37.525Z,5.43
2017-06-10T10:00:04.228Z,10.07
2017-06-10T10:02:30.896Z,7.20
2017-06-10T10:04:57.572Z,7.53
2017-06-10T10:07:24.272Z,6.87
2017-06-10T10:09:50.944Z,6.47
2017-06-10T10:12:17.605Z,8.40
2017-06-10T10:14:44.269Z,7.07
2017-06-10T10:17:10.933Z,9.93
2017-06-10T10:19:37.609Z,7.00
2017-06-10T10:22:04.694Z,6.10
2017-06-10T10:24:31.425Z,7.10
2017-06-10T10:26:58.104Z,8.83
2017-06-10T10:29:24.796Z,7.07
2017-06-10T10:31:51.468Z,8.93
2017-06-10T10:34:18.136Z,10.77
2017-06-10T10:36:44.798Z,8.20
2017-06-10T10:39:11.465Z,6.63
2017-06-10T10:41:38.159Z,7.87
2017-06-10T10:44:04.832Z,6.60
2017-06-10T10:46:31.505Z,11.80
2017-06-10T10:48:58.189Z,8.30
2017-06-10T10:51:24.856Z,6.93
2017-06-10T10:53:51.544Z,6.90
2017-06-10T10:56:18.220Z,7.63
2017-06-10T10:58:45.176Z,7.97
2017-06-10T11:01:11.855Z,11.17
2017-06-10T11:03:38.547Z,6.47
2017-06-10T11:06:05.224Z,7.40
2017-06-10T11:08:31.888Z,9.33
2017-06-10T11:10:58.560Z,6.40
2017-06-10T11:13:25.236Z,10.00
2017-06-10T11:15:51.931Z,8.93
2017-06-10T11:18:18.608Z,9.23
2017-06-10T11:20:45.277Z,8.13
2017-06-10T11:23:11.949Z,9.60
2017-06-10T11:25:38.626Z,9.23
2017-06-10T11:28:05.300Z,7.13
2017-06-10T11:30:31.963Z,7.00
2017-06-10T11:32:58.663Z,8.93
2017-06-10T11:35:25.359Z,10.30
2017-06-10T11:37:52.023Z,6.30
2017-06-10T11:40:18.696Z,8.37
2017-06-10T11:42:45.360Z,7.97
2017-06-10T11:45:12.040Z,7.57
2017-06-10T11:47:38.708Z,7.87
2017-06-10T11:50:05.412Z,10.03
2017-06-10T11:52:32.084Z,8.23
2017-06-10T11:54:58.748Z,7.50
2017-06-10T11:57:25.419Z,8.03
2017-06-10T11:59:52.096Z,8.40
2017-06-10T12:02:18.768Z,7.50
2017-06-10T12:04:45.447Z,7.97
2017-06-10T12:07:12.143Z,8.90
2017-06-10T12:09:38.813Z,8.73
2017-06-10T12:12:05.487Z,8.90
2017-06-10T12:14:32.148Z,8.57
2017-06-10T12:16:58.816Z,8.37
2017-06-10T12:19:25.487Z,8.00
2017-06-10T12:21:52.152Z,8.27
2017-06-10T12:24:18.848Z,8.80
2017-06-10T12:26:45.521Z,9.43
2017-06-10T12:29:12.192Z,10.37
2017-06-10T12:31:38.864Z,7.83
2017-06-10T12:34:05.523Z,9.43
2017-06-10T12:36:32.187Z,9.10
2017-06-10T12:38:58.859Z,10.23
2017-06-10T12:41:25.556Z,8.97
2017-06-10T12:43:52.235Z,10.00
2017-06-10T12:46:18.905Z,10.77
2017-06-10T12:48:45.573Z,9.30
2017-06-10T12:51:12.244Z,10.30
2017-06-10T12:53:38.904Z,9.23
2017-06-10T12:56:05.572Z,9.20
2017-06-10T12:58:32.239Z,9.37
2017-06-10T13:00:58.907Z,9.37
2017-06-10T13:03:25.589Z,11.53
2017-06-10T13:05:52.284Z,8.10
2017-06-10T13:08:18.961Z,7.50
2017-06-10T13:10:45.628Z,7.90
2017-06-10T13:13:12.317Z,6.90
2017-06-10T13:15:38.979Z,8.33
2017-06-10T13:18:05.677Z,8.27
2017-06-10T13:20:32.351Z,7.47
2017-06-10T13:22:59.019Z,6.33
2017-06-10T13:25:25.680Z,7.47
2017-06-10T13:27:52.345Z,8.77
2017-06-10T13:30:19.031Z,6.47
2017-06-10T13:32:45.701Z,6.63
2017-06-10T13:35:12.584Z,6.47
2017-06-10T13:37:39.251Z,9.27
2017-06-10T13:40:05.925Z,6.90
2017-06-10T13:42:32.624Z,11.87
2017-06-10T13:44:59.295Z,10.40
2017-06-10T13:47:25.971Z,6.73
2017-06-10T13:49:52.640Z,9.57
2017-06-10T13:52:19.308Z,7.90
2017-06-10T13:54:46.004Z,6.30
2017-06-10T13:57:12.676Z,5.87
2017-06-10T13:59:39.339Z,5.57
2017-06-10T14:02:06.009Z,5.27
2017-06-10T14:04:32.676Z,5.43
2017-06-10T14:06:59.347Z,6.87
2017-06-10T14:09:26.020Z,7.77
2017-06-10T14:11:52.732Z,3.73
2017-06-10T14:14:19.397Z,4.40
2017-06-10T14:16:46.064Z,5.10
2017-06-10T14:19:12.735Z,5.93
2017-06-10T14:21:39.400Z,4.77
2017-06-10T14:24:06.076Z,5.90
2017-06-10T14:26:32.747Z,5.53
2017-06-10T14:28:59.452Z,6.77
2017-06-10T14:31:26.115Z,4.27
2017-06-10T14:33:52.780Z,5.90
2017-06-10T14:36:19.444Z,5.40
2017-06-10T14:38:46.113Z,6.43
2017-06-10T14:41:12.777Z,4.83
2017-06-10T14:43:39.444Z,4.97
2017-06-10T14:46:06.136Z,3.73
2017-06-10T14:48:32.804Z,5.57
2017-06-10T14:50:59.478Z,5.60
2017-06-10T14:53:26.147Z,6.20
2017-06-10T14:55:52.815Z,4.17
2017-06-10T14:58:19.487Z,10.83
2017-06-10T15:00:46.159Z,5.80
2017-06-10T15:03:12.863Z,5.10
2017-06-10T15:05:39.528Z,6.43
2017-06-10T15:08:06.192Z,6.80
2017-06-10T15:10:32.888Z,7.80
2017-06-10T15:12:59.573Z,4.40
2017-06-10T15:15:26.245Z,5.17
2017-06-10T15:17:52.911Z,4.43
2017-06-10T15:20:19.612Z,5.03
2017-06-10T15:22:46.284Z,5.03
2017-06-10T15:25:12.956Z,3.97
2017-06-10T15:27:39.620Z,5.13
2017-06-10T15:30:06.291Z,7.57
2017-06-10T15:32:33.005Z,8.43
2017-06-10T15:34:59.668Z,4.90
2017-06-10T15:37:26.359Z,3.63
2017-06-10T15:39:53.019Z,6.17
2017-06-10T15:42:19.683Z,4.23
2017-06-10T15:44:46.348Z,3.40
2017-06-10T15:47:13.015Z,5.77
2017-06-10T15:49:39.684Z,4.60
2017-06-10T15:52:06.351Z,3.53
2017-06-10T15:54:33.043Z,4.40
2017-06-10T15:56:59.708Z,5.40
2017-06-10T15:59:26.368Z,6.00
2017-06-10T16:01:53.031Z,4.33
2017-06-10T16:04:19.712Z,3.33
2017-06-10T16:06:46.384Z,3.80
2017-06-10T16:09:13.064Z,3.40
2017-06-10T16:11:39.767Z,6.60
2017-06-10T16:14:06.432Z,3.90
2017-06-10T16:16:33.107Z,3.80
2017-06-10T16:18:59.783Z,4.97
2017-06-10T16:21:26.452Z,5.67
2017-06-10T16:23:53.120Z,4.10
2017-06-10T16:26:19.783Z,8.23
2017-06-10T16:28:46.476Z,6.13
2017-06-10T16:31:13.145Z,5.13
2017-06-10T16:33:39.835Z,5.50
2017-06-10T16:36:06.512Z,4.10
2017-06-10T16:38:33.172Z,6.37
2017-06-10T16:40:59.831Z,5.93
2017-06-10T16:43:26.488Z,3.43
2017-06-10T16:45:53.180Z,4.70
2017-06-10T16:48:19.846Z,3.60
2017-06-10T16:50:46.523Z,5.50
2017-06-10T16:53:13.183Z,4.33
2017-06-10T16:55:39.848Z,5.40
2017-06-10T16:58:06.511Z,4.37
2017-06-10T17:00:33.184Z,8.40
2017-06-10T17:02:59.893Z,4.73
2017-06-10T17:05:26.559Z,5.80
2017-06-10T17:07:53.231Z,4.43
2017-06-10T17:10:19.895Z,6.73
2017-06-10T17:12:46.568Z,5.90
2017-06-10T17:15:13.236Z,6.67
2017-06-10T17:17:39.896Z,4.30
2017-06-10T17:20:06.597Z,6.17
2017-06-10T17:22:33.321Z,4.13
2017-06-10T17:25:00.003Z,4.80
2017-06-10T17:27:26.672Z,6.17
2017-06-10T17:29:53.337Z,5.77
2017-06-10T17:32:20.003Z,3.77
2017-06-10T17:34:46.674Z,4.70
2017-06-10T17:37:13.372Z,3.67
2017-06-10T17:39:40.040Z,4.80
2017-06-10T17:42:06.701Z,6.93
2017-06-10T17:44:33.364Z,6.47
2017-06-10T17:47:00.033Z,4.57
2017-06-10T17:49:26.699Z,5.03
2017-06-10T17:51:53.368Z,3.63
2017-06-10T17:54:20.084Z,6.23
2017-06-10T17:56:46.756Z,5.50
2017-06-10T17:59:13.424Z,5.37
2017-06-10T18:01:40.087Z,4.27
2017-06-10T18:04:06.764Z,6.20
2017-06-10T18:06:33.428Z,6.80
2017-06-10T18:09:00.091Z,3.90
2017-06-10T18:11:26.819Z,7.00
2017-06-10T18:13:53.488Z,4.67
2017-06-10T18:16:20.164Z,7.83
2017-06-10T18:18:46.857Z,4.20
2017-06-10T18:21:13.533Z,5.93
2017-06-10T18:23:46.050Z,6.20
2017-06-10T18:26:12.729Z,6.83
2017-06-10T18:28:39.400Z,4.90
2017-06-10T18:31:06.100Z,5.37
2017-06-10T18:33:32.784Z,5.63
2017-06-10T18:35:59.487Z,5.80
2017-06-10T18:38:26.168Z,5.40
2017-06-10T18:40:52.872Z,4.97
2017-06-10T18:43:19.534Z,5.93
2017-06-10T18:45:46.221Z,6.43
2017-06-10T18:48:12.929Z,8.90
2017-06-10T18:50:39.605Z,6.90
2017-06-10T18:53:06.333Z,4.10
2017-06-10T18:55:33.003Z,5.70
2017-06-10T18:57:59.675Z,5.37
2017-06-10T19:00:26.347Z,6.23
2017-06-10T19:02:53.035Z,6.20
2017-06-10T19:05:19.736Z,5.00
2017-06-10T19:07:46.400Z,7.20
2017-06-10T19:10:13.102Z,5.60
2017-06-10T19:12:39.774Z,4.60
2017-06-10T19:15:06.457Z,6.47
2017-06-10T19:17:33.137Z,4.37
2017-06-10T19:19:59.844Z,7.20
2017-06-10T19:22:26.563Z,5.53
2017-06-10T19:24:53.238Z,6.70
2017-06-10T19:27:19.951Z,6.82
2017-06-10T19:29:46.624Z,6.12
2017-06-10T19:32:13.335Z,5.25
2017-06-10T19:34:40.028Z,6.70
2017-06-10T19:37:06.730Z,6.93
2017-06-10T19:39:33.444Z,5.45
2017-06-10T19:42:00.128Z,5.55
2017-06-10T19:44:27.113Z,9.77
2017-06-10T19:46:53.791Z,5.20
2017-06-10T19:49:20.471Z,9.40
2017-06-10T19:51:47.172Z,5.85
2017-06-10T19:54:13.853Z,6.43
2017-06-10T19:56:40.528Z,7.32
2017-06-10T19:59:07.204Z,12.13
2017-06-10T20:01:33.871Z,8.10
2017-06-10T20:04:00.552Z,11.12
2017-06-10T20:06:27.223Z,8.25
2017-06-10T20:08:53.923Z,10.48
2017-06-10T20:11:20.596Z,10.48
2017-06-10T20:13:47.275Z,10.43
2017-06-10T20:16:13.951Z,12.63
2017-06-10T20:18:40.636Z,10.68
2017-06-10T20:21:07.312Z,13.40
2017-06-10T20:23:33.995Z,9.43
2017-06-10T20:26:00.691Z,8.10
2017-06-10T20:28:27.365Z,8.98
2017-06-10T20:30:54.048Z,10.73
2017-06-10T20:33:20.720Z,11.82
2017-06-10T20:35:47.407Z,11.60
2017-06-10T20:38:14.085Z,11.25
2017-06-10T20:40:40.764Z,16.05
2017-06-10T20:43:07.475Z,18.62
2017-06-10T20:45:34.147Z,18.27
2017-06-10T20:48:00.824Z,15.77
2017-06-10T20:50:27.499Z,15.45
2017-06-10T20:52:54.984Z,11.95
2017-06-10T20:55:21.657Z,13.62
2017-06-10T20:57:48.335Z,12.73
2017-06-10T21:00:15.036Z,11.73
2017-06-10T21:02:41.708Z,12.52
2017-06-10T21:05:08.410Z,11.45
2017-06-10T21:07:35.083Z,11.10
2017-06-10T21:10:01.752Z,10.25
2017-06-10T21:12:29.015Z,10.32
2017-06-10T21:14:55.709Z,9.75
2017-06-10T21:17:22.410Z,10.48
2017-06-10T21:19:49.080Z,10.20
2017-06-10T21:22:15.744Z,10.75
2017-06-10T21:24:42.408Z,9.68
2017-06-10T21:27:09.089Z,9.95
2017-06-10T21:29:35.764Z,10.82
2017-06-10T21:32:02.443Z,10.90
2017-06-10T21:34:29.129Z,11.45
2017-06-10T21:36:55.795Z,17.17
2017-06-10T21:39:22.532Z,19.42
2017-06-10T21:41:49.212Z,26.23
2017-06-10T21:44:15.889Z,31.73
2017-06-10T21:46:42.564Z,33.00
2017-06-10T21:49:09.231Z,48.25
2017-06-10T21:51:35.904Z,98.90
2017-06-10T21:54:02.597Z,115.55
2017-06-10T21:56:29.309Z,130.37
2017-06-10T21:58:55.992Z,161.32
2017-06-10T22:01:22.712Z,202.77
2017-06-10T22:03:49.401Z,180.32
2017-06-10T22:06:16.088Z,98.70
2017-06-10T22:08:42.782Z,227.87
2017-06-10T22:11:09.488Z,260.95
2017-06-10T22:13:36.179Z,297.98
2017-06-10T22:16:02.868Z,291.92
2017-06-10T22:18:29.583Z,282.40
2017-06-10T22:20:56.272Z,328.73
2017-06-10T22:23:22.970Z,318.02
2017-06-10T22:25:49.656Z,304.30
2017-06-10T22:28:16.345Z,307.35
2017-06-10T22:30:43.028Z,286.80
2017-06-10T22:33:09.704Z,286.98
2017-06-10T22:35:36.389Z,283.60
2017-06-10T22:38:03.076Z,247.43
2017-06-10T22:40:29.783Z,229.87
2017-06-10T22:42:56.551Z,252.73
2017-06-10T22:45:23.315Z,241.35
2017-06-10T22:47:50.000Z,235.20
2017-06-10T22:50:16.685Z,215.77
2017-06-10T22:52:43.381Z,226.80
2017-06-10T22:55:10.059Z,199.07
2017-06-10T22:57:36.735Z,188.12
2017-06-10T23:00:03.415Z,179.40
2017-06-10T23:02:30.153Z,155.00
2017-06-10T23:04:56.839Z,190.62
2017-06-10T23:07:23.613Z,148.77
2017-06-10T23:09:50.299Z,151.63
2017-06-10T23:12:17.020Z,142.32
2017-06-10T23:14:43.707Z,120.75
2017-06-10T23:17:10.388Z,100.60
2017-06-10T23:19:37.076Z,102.60
2017-06-10T23:22:03.762Z,99.32
2017-06-10T23:24:30.440Z,86.45
2017-06-10T23:26:57.116Z,82.03
2017-06-10T23:29:23.793Z,73.97
2017-06-10T23:31:50.467Z,63.50
2017-06-10T23:34:17.169Z,41.58
2017-06-10T23:36:43.844Z,46.53
2017-06-10T23:39:10.544Z,46.95
2017-06-10T23:41:37.224Z,39.17
2017-06-10T23:44:03.899Z,41.47
2017-06-10T23:46:30.572Z,34.97
2017-06-10T23:48:57.250Z,32.50
2017-06-10T23:51:23.927Z,33.10
2017-06-10T23:53:50.607Z,32.65
2017-06-10T23:56:19.022Z,33.63
2017-06-10T23:58:50.925Z,30.77
